Time;durP1;ratioP1;P1;durP2;ratioP2;P2;SDS_P1;SDS_P2;PMS_P1;PMS_P2;Temp;Humidity;BMP_temperature;BMP_pressure;BME280_temperature;BME280_humidity;BME280_pressure;Samples;Min_cycle;Max_cycle;Signal;HPM_P1;HPM_P2
2023/01/08 00:01:33;;;;;;;35.77;24.20;;;;;;;4.31;56.83;100128.53;5093841;28;20070;-79
2023/01/08 00:03:59;;;;;;;36.67;25.10;;;;;;;4.94;56.88;100252.47;5092866;28;20437;-80
2023/01/08 00:06:24;;;;;;;36.37;22.93;;;;;;;4.85;56.76;100210.53;5094114;28;20028;-79
2023/01/08 00:08:50;;;;;;;27.80;19.53;;;;;;;4.18;56.66;100117.41;5094041;28;20440;-79
2023/01/08 00:11:15;;;;;;;33.23;21.53;;;;;;;4.05;56.47;100098.44;5093996;28;20032;-79
2023/01/08 00:13:41;;;;;;;28.17;20.37;;;;;;;4.74;56.59;100217.44;5093783;28;20047;-79
2023/01/08 00:16:12;;;;;;;27.27;19.53;;;;;;;4.92;56.51;100251.75;5092974;28;20024;-78
2023/01/08 00:18:38;;;;;;;32.15;20.73;;;;;;;4.89;56.82;100261.63;5094450;28;20024;-80
2023/01/08 00:21:04;;;;;;;34.17;21.57;;;;;;;2.87;56.62;99938.03;5094441;28;20106;-79
2023/01/08 00:23:29;;;;;;;37.03;23.27;;;;;;;4.09;56.47;100124.22;5093019;28;20111;-79
2023/01/08 00:25:55;;;;;;;33.33;22.67;;;;;;;3.97;56.23;100124.34;5093433;28;20074;-79
2023/01/08 00:28:20;;;;;;;34.17;21.87;;;;;;;3.96;56.39;100146.22;5094425;28;20499;-79
2023/01/08 00:30:47;;;;;;;36.47;24.83;;;;;;;4.82;56.15;100250.00;5094577;28;20036;-79
2023/01/08 00:33:12;;;;;;;35.60;22.93;;;;;;;4.33;56.33;100201.63;5094223;28;20032;-79
2023/01/08 00:35:38;;;;;;;34.83;23.03;;;;;;;3.95;56.60;100141.94;5092865;28;20056;-80
2023/01/08 00:38:04;;;;;;;34.33;22.33;;;;;;;3.47;56.50;100123.91;5093137;28;20027;-79
2023/01/08 00:40:29;;;;;;;32.10;22.33;;;;;;;4.03;56.78;100173.50;5094622;28;20032;-79
2023/01/08 00:42:54;;;;;;;35.60;22.00;;;;;;;3.56;56.51;100149.28;5093016;28;20024;-79
2023/01/08 00:45:20;;;;;;;31.07;20.57;;;;;;;3.54;56.48;100151.19;5094391;28;20039;-80
2023/01/08 00:47:45;;;;;;;30.00;19.27;;;;;;;4.03;56.54;100184.78;5093777;28;20390;-79
2023/01/08 00:50:11;;;;;;;31.20;21.40;;;;;;;3.74;56.57;100153.13;5094061;28;20106;-79
2023/01/08 00:52:36;;;;;;;28.17;19.63;;;;;;;4.06;56.43;100184.56;5094031;28;20063;-79
2023/01/08 00:55:02;;;;;;;28.00;19.13;;;;;;;4.38;56.54;100231.66;5092528;28;20039;-80
2023/01/08 00:57:35;;;;;;;55.30;33.07;;;;;;;4.35;56.58;100259.84;5093671;28;20059;-80
2023/01/08 01:00:01;;;;;;;45.27;28.10;;;;;;;4.27;56.67;100244.75;5093736;28;20056;-79
2023/01/08 01:02:27;;;;;;;35.70;21.27;;;;;;;3.17;56.59;100062.69;5092517;28;20031;-79
2023/01/08 01:04:52;;;;;;;35.27;21.23;;;;;;;4.32;56.73;100249.63;5092855;28;20032;-79
2023/01/08 01:07:18;;;;;;;40.53;21.20;;;;;;;3.80;56.64;100170.91;5092733;28;20028;-80
2023/01/08 01:09:44;;;;;;;33.80;20.27;;;;;;;3.90;56.59;100183.25;5092944;28;20058;-79
2023/01/08 01:12:09;;;;;;;35.67;19.50;;;;;;;4.02;56.60;100197.97;5091331;28;20055;-79
2023/01/08 01:14:36;;;;;;;33.07;19.23;;;;;;;3.37;56.22;100104.69;5092615;28;20035;-79
2023/01/08 01:17:02;;;;;;;34.27;18.50;;;;;;;3.47;56.20;100129.94;5092704;28;20473;-79
2023/01/08 01:19:27;;;;;;;27.40;18.47;;;;;;;4.25;56.63;100245.81;5092597;28;20027;-79
2023/01/08 01:21:53;;;;;;;28.70;18.23;;;;;;;3.58;56.64;100144.78;5092572;28;20020;-79
2023/01/08 01:24:20;;;;;;;26.17;16.33;;;;;;;4.03;56.51;100202.25;5092828;28;20073;-79
2023/01/08 01:26:46;;;;;;;29.40;17.73;;;;;;;3.81;56.58;100166.53;5092505;28;20077;-80
2023/01/08 01:29:11;;;;;;;21.57;14.97;;;;;;;4.27;56.70;100243.91;5092650;28;20063;-80
2023/01/08 01:31:37;;;;;;;24.03;14.90;;;;;;;4.00;56.78;100208.56;5091020;28;20020;-79
2023/01/08 01:34:02;;;;;;;35.97;20.37;;;;;;;4.32;56.30;100247.84;5092343;28;20455;-79
2023/01/08 01:36:28;;;;;;;23.90;15.37;;;;;;;3.48;56.23;100117.72;5092449;28;20031;-79
2023/01/08 01:38:55;;;;;;;22.07;13.80;;;;;;;4.20;56.21;100230.50;5090948;28;20532;-80
2023/01/08 01:41:26;;;;;;;19.93;13.80;;;;;;;4.28;56.68;100248.19;5091100;28;20028;-79
2023/01/08 01:43:52;;;;;;;20.90;14.37;;;;;;;4.27;56.56;100239.53;5092173;28;20024;-79
2023/01/08 01:46:37;;;;;;;21.23;13.30;;;;;;;3.70;56.17;100166.50;5092192;28;20023;-79
2023/01/08 01:49:10;;;;;;;20.57;14.03;;;;;;;3.45;56.29;100129.25;5092079;28;20028;-79
2023/01/08 01:51:40;;;;;;;18.90;15.13;;;;;;;3.22;56.48;100091.03;5091797;28;20412;-79
2023/01/08 01:54:09;;;;;;;20.50;14.20;;;;;;;2.76;56.66;100026.69;5092043;28;20028;-79
2023/01/08 01:56:35;;;;;;;20.67;13.83;;;;;;;4.06;56.65;100234.19;5091123;28;20024;-79
2023/01/08 01:59:01;;;;;;;17.77;11.83;;;;;;;2.63;56.83;100005.13;5091559;28;20035;-79
2023/01/08 02:01:29;;;;;;;16.07;11.17;;;;;;;3.31;56.92;100121.63;5092014;28;20031;-79
2023/01/08 02:03:54;;;;;;;16.67;12.27;;;;;;;4.02;56.85;100258.91;5092588;28;20477;-79
2023/01/08 02:06:40;;;;;;;17.73;11.87;;;;;;;3.73;56.58;100203.69;5092856;28;20115;-78
2023/01/08 02:09:48;;;;;;;18.33;12.50;;;;;;;3.70;56.53;100193.44;5092674;28;20077;-79
2023/01/08 02:12:23;;;;;;;18.13;11.07;;;;;;;3.96;56.61;100232.41;5092837;28;20048;-79
2023/01/08 02:15:01;;;;;;;15.77;11.57;;;;;;;3.38;56.77;100155.94;5092429;28;20112;-79
2023/01/08 02:17:30;;;;;;;16.17;11.07;;;;;;;3.93;56.74;100222.22;5092024;28;20050;-78
2023/01/08 02:20:05;;;;;;;14.77;10.83;;;;;;;3.46;56.87;100145.72;5091999;28;20031;-80
2023/01/08 02:23:00;;;;;;;16.47;11.90;;;;;;;3.91;57.06;100229.34;5091685;28;20032;-79
2023/01/08 02:25:31;;;;;;;15.87;11.57;;;;;;;3.85;56.81;100222.81;5091565;28;20035;-79
2023/01/08 02:28:00;;;;;;;20.60;11.87;;;;;;;3.62;57.18;100184.53;5091728;28;20038;-79
2023/01/08 02:30:26;;;;;;;15.40;11.97;;;;;;;3.35;57.14;100175.25;5090299;28;20468;-79
2023/01/08 02:32:51;;;;;;;18.53;12.30;;;;;;;3.72;56.68;100212.47;5090302;28;20119;-79
2023/01/08 02:35:16;;;;;;;17.17;11.80;;;;;;;3.78;57.07;100227.66;5091864;28;20020;-79
2023/01/08 02:37:42;;;;;;;18.83;12.50;;;;;;;3.37;57.09;100162.09;5090995;28;20175;-79
2023/01/08 02:40:30;;;;;;;15.23;11.13;;;;;;;3.66;56.72;100197.25;5092013;28;20454;-79
2023/01/08 02:43:07;;;;;;;35.43;20.67;;;;;;;3.78;57.00;100213.78;5092156;28;20025;-79
2023/01/08 02:45:41;;;;;;;34.93;20.97;;;;;;;3.70;56.81;100216.94;5091013;28;20024;-79
2023/01/08 02:48:24;;;;;;;20.80;13.27;;;;;;;3.03;56.92;100106.44;5091838;28;20124;-79
2023/01/08 02:50:59;;;;;;;18.00;12.27;;;;;;;1.02;56.94;99806.22;5091641;28;20503;-79
2023/01/08 02:53:33;;;;;;;16.93;11.03;;;;;;;3.32;57.22;100183.31;5091655;28;20028;-79
2023/01/08 02:56:04;;;;;;;19.10;12.83;;;;;;;2.72;57.31;100084.41;5090436;28;20024;-79
2023/01/08 02:58:32;;;;;;;20.13;13.07;;;;;;;3.54;57.45;100215.63;5091357;28;20090;-79
2023/01/08 03:01:02;;;;;;;15.87;11.87;;;;;;;3.59;57.29;100210.88;5090188;28;20119;-80
2023/01/08 03:03:29;;;;;;;18.40;12.17;;;;;;;3.58;57.22;100212.66;5092042;28;20028;-80
2023/01/08 03:06:07;;;;;;;12.93;10.50;;;;;;;3.14;57.42;100149.03;5091966;28;20086;-79
2023/01/08 03:08:36;;;;;;;17.57;11.37;;;;;;;3.59;56.96;100200.44;5091810;28;20107;-79
2023/01/08 03:11:07;;;;;;;17.50;11.03;;;;;;;3.49;57.09;100184.66;5092067;28;20084;-80
2023/01/08 03:13:51;;;;;;;21.23;13.35;;;;;;;3.63;56.88;100209.69;5094421;28;20043;-79
2023/01/08 03:16:22;;;;;;;18.93;12.00;;;;;;;3.27;57.10;100159.34;5094318;28;20028;-79
2023/01/08 03:18:54;;;;;;;17.97;12.30;;;;;;;3.21;56.88;100169.44;5096265;28;20115;-79
2023/01/08 03:21:21;;;;;;;38.50;23.15;;;;;;;3.32;56.79;100187.72;5096209;28;20477;-80
2023/01/08 03:23:48;;;;;;;36.60;22.87;;;;;;;3.05;57.28;100149.72;5095641;28;20031;-79
2023/01/08 03:26:18;;;;;;;22.57;15.17;;;;;;;2.70;57.04;100101.94;5094361;28;20579;-79
2023/01/08 03:28:48;;;;;;;18.33;13.13;;;;;;;3.41;57.11;100208.72;5095612;28;20412;-79
2023/01/08 03:31:15;;;;;;;21.67;12.90;;;;;;;3.07;57.28;100171.28;5095531;28;20076;-79
2023/01/08 03:33:43;;;;;;;22.77;13.73;;;;;;;1.23;57.15;99873.09;5095326;28;20032;-79
2023/01/08 03:36:13;;;;;;;20.07;14.07;;;;;;;2.81;57.31;100131.47;5094185;28;20024;-79
2023/01/08 03:38:43;;;;;;;19.90;13.17;;;;;;;3.15;57.30;100184.59;5094210;28;20020;-79
2023/01/08 03:41:13;;;;;;;17.07;12.37;;;;;;;3.40;57.11;100214.06;5095528;28;20027;-79
2023/01/08 03:43:39;;;;;;;18.30;11.90;;;;;;;3.33;56.91;100211.09;5093808;28;20020;-79
2023/01/08 03:46:10;;;;;;;18.90;14.10;;;;;;;3.29;57.05;100188.78;5094254;28;20035;-79
2023/01/08 03:48:37;;;;;;;17.63;13.73;;;;;;;3.04;57.00;100168.91;5095491;28;20077;-79
2023/01/08 03:51:02;;;;;;;15.07;11.37;;;;;;;3.34;57.15;100206.69;5093891;28;20028;-79
2023/01/08 03:53:28;;;;;;;14.63;10.20;;;;;;;3.04;57.02;100171.53;5093727;28;20028;-79
2023/01/08 03:55:55;;;;;;;14.53;9.57;;;;;;;3.39;56.97;100220.22;5094078;28;20023;-80
2023/01/08 03:58:20;;;;;;;19.77;12.23;;;;;;;3.22;57.46;100229.31;5095026;28;20035;-80
2023/01/08 04:00:46;;;;;;;17.77;11.63;;;;;;;2.85;57.15;100129.47;5095097;28;20032;-79
2023/01/08 04:03:11;;;;;;;16.27;9.93;;;;;;;2.20;57.11;100029.13;5094224;28;20078;-79
2023/01/08 04:05:36;;;;;;;14.43;9.40;;;;;;;3.08;57.07;100179.97;5094023;28;20056;-79
2023/01/08 04:08:02;;;;;;;14.27;10.23;;;;;;;3.10;56.96;100178.91;5094211;28;20027;-79
2023/01/08 04:10:27;;;;;;;14.77;10.27;;;;;;;2.66;57.18;100114.38;5092753;28;20081;-79
2023/01/08 04:12:53;;;;;;;15.27;10.63;;;;;;;3.21;56.96;100198.13;5093970;28;20094;-79
2023/01/08 04:15:19;;;;;;;15.43;10.60;;;;;;;3.39;57.01;100230.66;5094372;28;20420;-79
2023/01/08 04:17:44;;;;;;;16.10;10.03;;;;;;;3.10;57.16;100175.44;5094320;28;20035;-79
2023/01/08 04:20:10;;;;;;;14.80;10.57;;;;;;;3.24;57.04;100219.59;5095094;28;20055;-79
2023/01/08 04:22:36;;;;;;;17.27;12.33;;;;;;;2.91;57.03;100165.53;5094445;28;20036;-79
2023/01/08 04:25:01;;;;;;;14.73;9.80;;;;;;;2.96;57.14;100188.66;5093434;28;20051;-79
2023/01/08 04:27:26;;;;;;;15.70;10.07;;;;;;;3.13;56.92;100201.31;5094151;28;20477;-79
2023/01/08 04:29:52;;;;;;;16.83;12.20;;;;;;;3.19;57.26;100222.56;5095128;28;20034;-79
2023/01/08 04:32:19;;;;;;;17.67;12.27;;;;;;;2.23;57.06;100094.06;5094487;28;20036;-79
2023/01/08 04:34:44;;;;;;;17.57;14.67;;;;;;;2.48;57.16;100100.91;5093701;28;20469;-80
2023/01/08 04:37:10;;;;;;;17.87;15.13;;;;;;;3.12;57.19;100205.69;5093474;28;20039;-79
2023/01/08 04:39:35;;;;;;;22.77;18.27;;;;;;;3.31;57.17;100233.03;5092211;28;20039;-79
2023/01/08 04:42:00;;;;;;;27.27;19.53;;;;;;;3.08;56.80;100216.47;5093746;28;20031;-79
2023/01/08 04:44:26;;;;;;;28.97;19.87;;;;;;;2.98;57.12;100186.81;5093709;28;20024;-79
2023/01/08 04:46:51;;;;;;;30.80;20.97;;;;;;;3.24;56.89;100237.88;5093256;28;20111;-80
2023/01/08 04:49:17;;;;;;;35.00;23.00;;;;;;;3.04;57.34;100213.25;5093919;28;20107;-79
2023/01/08 04:51:42;;;;;;;31.67;21.40;;;;;;;2.82;56.89;100187.06;5093845;28;20035;-79
2023/01/08 04:54:08;;;;;;;27.00;18.67;;;;;;;2.38;57.13;100086.91;5093968;28;20020;-79
2023/01/08 04:56:33;;;;;;;28.40;21.20;;;;;;;3.14;56.99;100227.28;5094039;28;20039;-79
2023/01/08 04:58:58;;;;;;;21.47;17.17;;;;;;;3.09;57.29;100228.56;5092796;28;20024;-79
2023/01/08 05:01:26;;;;;;;22.80;15.80;;;;;;;3.12;56.94;100231.78;5094208;28;20054;-79
2023/01/08 05:04:00;;;;;;;17.73;13.77;;;;;;;2.58;57.22;100154.97;5093011;28;20421;-80
2023/01/08 05:06:27;;;;;;;19.27;14.33;;;;;;;3.07;57.55;100243.50;5091796;28;20054;-79
2023/01/08 05:08:53;;;;;;;20.40;14.63;;;;;;;2.86;57.51;100222.41;5093101;28;20024;-79
2023/01/08 05:11:18;;;;;;;21.10;15.20;;;;;;;3.07;57.47;100254.78;5093018;28;20128;-79
2023/01/08 05:13:50;;;;;;;21.43;15.53;;;;;;;2.90;57.28;100228.25;5092842;28;20055;-79
2023/01/08 05:16:16;;;;;;;30.60;22.33;;;;;;;2.72;57.19;100193.91;5092952;28;20020;-79
2023/01/08 05:18:45;;;;;;;32.87;24.03;;;;;;;2.83;57.30;100215.66;5091900;28;20036;-79
2023/01/08 05:21:12;;;;;;;33.07;23.77;;;;;;;2.30;56.86;100136.13;5093469;28;20027;-79
2023/01/08 05:23:37;;;;;;;40.60;24.50;;;;;;;3.10;56.88;100261.53;5093678;28;20024;-80
2023/01/08 05:26:05;;;;;;;32.37;24.43;;;;;;;3.09;56.93;100259.88;5093367;28;20030;-79
2023/01/08 05:28:31;;;;;;;30.60;22.50;;;;;;;2.88;57.07;100225.75;5093215;28;20035;-79
2023/01/08 05:30:57;;;;;;;27.10;19.57;;;;;;;2.73;57.33;100214.66;5091386;28;20031;-79
2023/01/08 05:33:23;;;;;;;25.50;20.67;;;;;;;1.83;56.78;100067.44;5091399;28;20032;-79
2023/01/08 05:35:48;;;;;;;26.97;17.80;;;;;;;2.38;57.30;100187.69;5091740;28;20031;-80
2023/01/08 05:38:14;;;;;;;22.27;16.97;;;;;;;2.29;57.26;100177.94;5092456;28;20081;-79
2023/01/08 05:40:39;;;;;;;22.67;16.73;;;;;;;2.25;57.28;100181.72;5091154;28;20119;-79
2023/01/08 05:43:05;;;;;;;20.83;15.23;;;;;;;2.66;57.10;100238.69;5093220;28;20030;-79
2023/01/08 05:45:31;;;;;;;50.90;31.17;;;;;;;2.20;57.05;100159.38;5092540;28;20032;-79
2023/01/08 05:47:57;;;;;;;33.20;21.20;;;;;;;2.86;57.55;100269.34;5091846;28;20105;-79
2023/01/08 05:50:22;;;;;;;28.50;17.97;;;;;;;2.49;57.07;100206.84;5093039;28;20459;-79
2023/01/08 05:52:48;;;;;;;25.10;19.17;;;;;;;2.20;57.25;100162.00;5093162;28;20035;-79
2023/01/08 05:55:14;;;;;;;21.67;16.67;;;;;;;1.99;57.07;100139.25;5092854;28;20032;-79
2023/01/08 05:57:39;;;;;;;27.83;23.57;;;;;;;2.36;57.24;100203.44;5092581;28;20106;-79
2023/01/08 06:00:07;;;;;;;32.73;23.13;;;;;;;2.90;57.04;100272.56;5091442;28;20055;-79
2023/01/08 06:02:32;;;;;;;30.97;22.77;;;;;;;2.08;57.00;100142.03;5092986;28;20107;-79
2023/01/08 06:04:58;;;;;;;38.17;29.00;;;;;;;2.34;57.17;100184.50;5092146;28;20146;-79
2023/01/08 06:07:23;;;;;;;47.57;34.77;;;;;;;1.79;57.04;100093.78;5092121;28;20070;-79
2023/01/08 06:09:48;;;;;;;41.47;32.20;;;;;;;2.95;56.50;100278.28;5092229;28;20098;-79
2023/01/08 06:12:14;;;;;;;46.17;33.50;;;;;;;2.60;56.82;100218.25;5091802;28;20505;-79
2023/01/08 06:14:39;;;;;;;41.60;29.73;;;;;;;1.97;57.13;100131.53;5090532;28;20028;-79
2023/01/08 06:17:05;;;;;;;48.93;33.57;;;;;;;2.21;56.88;100179.28;5092145;28;20033;-79
2023/01/08 06:19:30;;;;;;;55.83;40.97;;;;;;;2.78;57.04;100253.44;5092830;28;20106;-79
2023/01/08 06:21:55;;;;;;;60.63;42.80;;;;;;;2.95;57.05;100286.94;5092682;28;20031;-79
2023/01/08 06:24:21;;;;;;;61.77;43.93;;;;;;;2.10;56.48;100147.13;5092213;28;20052;-79
2023/01/08 06:26:46;;;;;;;67.30;46.00;;;;;;;1.92;56.52;100115.41;5093038;28;20442;-79
2023/01/08 06:29:11;;;;;;;72.47;49.67;;;;;;;2.59;56.80;100225.25;5092571;28;20020;-79
2023/01/08 06:31:37;;;;;;;64.57;43.80;;;;;;;2.59;56.54;100224.41;5092211;28;20481;-79
2023/01/08 06:34:02;;;;;;;71.30;48.23;;;;;;;2.70;56.65;100277.44;5090886;28;20029;-79
2023/01/08 06:36:28;;;;;;;78.37;52.07;;;;;;;2.66;56.47;100260.38;5091723;28;20028;-79
2023/01/08 06:38:54;;;;;;;81.57;57.50;;;;;;;2.47;56.67;100218.31;5090479;28;20028;-79
2023/01/08 06:41:20;;;;;;;87.47;59.83;;;;;;;2.15;56.64;100179.72;5091632;28;20554;-79
2023/01/08 06:43:46;;;;;;;85.93;56.37;;;;;;;1.09;56.93;100010.25;5091301;28;20024;-79
2023/01/08 06:46:11;;;;;;;78.50;53.90;;;;;;;2.11;56.16;100154.84;5092204;28;20127;-79
2023/01/08 06:48:37;;;;;;;72.83;51.03;;;;;;;1.96;56.45;100127.28;5095711;28;20028;-79
2023/01/08 06:51:03;;;;;;;69.93;47.37;;;;;;;3.14;56.19;100321.22;5094560;28;20103;-79
2023/01/08 06:53:28;;;;;;;59.37;40.67;;;;;;;2.71;56.56;100247.00;5096225;28;20066;-79
2023/01/08 06:55:57;;;;;;;66.67;43.33;;;;;;;2.63;56.55;100251.94;5094853;28;20059;-79
2023/01/08 06:58:24;;;;;;;63.43;44.17;;;;;;;3.12;56.78;100312.66;5094448;28;20416;-79
2023/01/08 07:00:49;;;;;;;66.47;44.73;;;;;;;3.09;56.90;100315.50;5094095;28;20023;-80
2023/01/08 07:03:15;;;;;;;53.90;39.53;;;;;;;2.67;56.74;100269.03;5095662;28;20020;-78
2023/01/08 07:05:40;;;;;;;59.17;40.70;;;;;;;3.01;56.68;100307.41;5095517;28;20094;-79
2023/01/08 07:08:09;;;;;;;71.93;48.43;;;;;;;2.99;56.75;100304.06;5096070;28;20024;-79
2023/01/08 07:10:34;;;;;;;86.20;56.33;;;;;;;2.78;56.74;100240.41;5095921;28;21234;-79
2023/01/08 07:12:59;;;;;;;89.20;60.93;;;;;;;2.78;56.68;100253.44;5095699;28;20082;-79
2023/01/08 07:15:25;;;;;;;100.17;69.77;;;;;;;2.49;56.55;100190.38;5096407;28;20108;-79
2023/01/08 07:17:50;;;;;;;73.47;52.30;;;;;;;2.71;56.57;100241.78;5096420;28;20028;-79
2023/01/08 07:20:15;;;;;;;77.03;52.80;;;;;;;2.96;56.51;100262.53;5095783;28;20035;-79
2023/01/08 07:22:41;;;;;;;74.90;50.37;;;;;;;2.40;56.34;100162.38;5095186;28;20024;-79
2023/01/08 07:25:07;;;;;;;83.63;53.47;;;;;;;2.78;56.21;100211.72;5094876;28;20028;-79
2023/01/08 07:27:32;;;;;;;106.10;71.83;;;;;;;3.29;56.16;100284.50;5093789;28;20078;-79
2023/01/08 07:29:58;;;;;;;109.67;74.60;;;;;;;3.47;56.20;100293.56;5095043;28;20024;-79
2023/01/08 07:32:23;;;;;;;114.33;77.70;;;;;;;2.68;55.84;100154.19;5094973;28;20024;-79
2023/01/08 07:34:48;;;;;;;106.20;71.90;;;;;;;3.65;56.30;100315.69;5094594;28;20549;-79
2023/01/08 07:37:14;;;;;;;114.27;74.10;;;;;;;3.35;55.71;100261.41;5094567;28;20501;-79
2023/01/08 07:39:39;;;;;;;116.97;76.87;;;;;;;3.08;56.10;100201.66;5094473;28;20039;-79
2023/01/08 07:42:05;;;;;;;110.23;71.27;;;;;;;3.92;55.98;100338.94;5094471;28;20056;-79
2023/01/08 07:44:30;;;;;;;110.77;69.70;;;;;;;2.81;56.10;100144.53;5094621;28;20023;-79
2023/01/08 07:46:55;;;;;;;100.07;62.30;;;;;;;4.07;56.14;100339.56;5093267;28;20416;-80
2023/01/08 07:49:21;;;;;;;90.20;57.70;;;;;;;3.34;56.32;100254.50;5094500;28;20034;-79
2023/01/08 07:51:48;;;;;;;93.67;59.43;;;;;;;4.22;56.10;100343.59;5094238;28;20024;-79
2023/01/08 07:54:13;;;;;;;87.63;57.27;;;;;;;3.66;56.18;100238.19;5094103;28;20472;-79
2023/01/08 07:56:39;;;;;;;83.80;56.90;;;;;;;4.33;56.20;100333.16;5092668;28;20085;-79
2023/01/08 07:59:04;;;;;;;86.00;59.67;;;;;;;3.66;56.09;100212.06;5092430;28;20031;-80
2023/01/08 08:01:30;;;;;;;97.27;64.67;;;;;;;4.15;56.23;100318.88;5092834;28;20510;-79
2023/01/08 08:03:55;;;;;;;86.60;64.60;;;;;;;4.21;56.23;100296.69;5094390;28;20020;-79
2023/01/08 08:06:20;;;;;;;85.83;59.43;;;;;;;3.95;56.16;100228.97;5094166;28;20028;-79
2023/01/08 08:08:46;;;;;;;78.63;54.67;;;;;;;3.97;55.82;100208.78;5092745;28;20052;-79
2023/01/08 08:11:11;;;;;;;71.93;51.47;;;;;;;4.04;56.22;100207.34;5093956;28;20055;-79
2023/01/08 08:13:41;;;;;;;60.37;45.30;;;;;;;4.24;56.39;100228.47;5093647;28;20043;-79
2023/01/08 08:16:07;;;;;;;56.87;41.33;;;;;;;4.29;56.34;100226.34;5093810;28;20119;-79
2023/01/08 08:18:32;;;;;;;57.67;42.90;;;;;;;4.76;56.40;100290.56;5095996;28;20030;-79
2023/01/08 08:20:57;;;;;;;55.83;42.13;;;;;;;4.65;56.62;100265.28;5096824;28;20028;-79
2023/01/08 08:23:23;;;;;;;55.70;43.97;;;;;;;4.65;56.44;100261.84;5095414;28;20119;-79
2023/01/08 08:25:50;;;;;;;67.23;51.17;;;;;;;5.21;56.56;100322.69;5096849;28;20027;-79
2023/01/08 08:28:16;;;;;;;65.17;49.63;;;;;;;4.90;56.40;100271.16;5097178;28;20020;-79
2023/01/08 08:30:41;;;;;;;60.37;47.63;;;;;;;4.90;56.47;100251.06;5096616;28;20105;-79
2023/01/08 08:33:06;;;;;;;67.00;51.20;;;;;;;5.16;56.27;100289.97;5096446;28;20036;-79
2023/01/08 08:35:33;;;;;;;69.83;51.13;;;;;;;5.53;56.51;100324.47;5094149;28;20054;-79
2023/01/08 08:37:58;;;;;;;62.10;48.63;;;;;;;5.04;56.29;100229.00;5092319;28;20085;-79
2023/01/08 08:40:25;;;;;;;78.03;53.00;;;;;;;5.70;56.58;100316.03;5093553;28;20031;-79
2023/01/08 08:42:58;;;;;;;68.33;48.30;;;;;;;5.78;56.54;100325.88;5093589;28;20492;-79
2023/01/08 08:45:24;;;;;;;58.40;45.07;;;;;;;5.70;56.72;100289.84;5093879;28;20035;-79
2023/01/08 08:47:50;;;;;;;56.50;41.03;;;;;;;5.37;56.23;100222.78;5091894;28;20455;-79
2023/01/08 08:50:16;;;;;;;51.63;37.43;;;;;;;5.32;56.79;100219.72;5093048;28;20077;-79
2023/01/08 08:52:43;;;;;;;42.23;32.43;;;;;;;5.46;57.15;100213.31;5092833;28;20423;-79
2023/01/08 08:55:11;;;;;;;46.93;34.67;;;;;;;5.67;56.89;100245.56;5091617;28;20496;-79
2023/01/08 08:57:37;;;;;;;39.60;28.17;;;;;;;5.91;56.81;100251.38;5092847;28;20034;-79
2023/01/08 09:00:03;;;;;;;29.83;23.40;;;;;;;6.31;56.58;100310.91;5092655;28;20036;-79
2023/01/08 09:02:28;;;;;;;31.42;22.90;;;;;;;5.98;56.47;100236.81;5092729;28;20081;-79
2023/01/08 09:04:53;;;;;;;27.17;20.90;;;;;;;5.87;56.96;100204.56;5092650;28;20024;-79
2023/01/08 09:07:19;;;;;;;26.55;20.80;;;;;;;6.19;56.80;100247.25;5091502;28;20027;-79
2023/01/08 09:09:44;;;;;;;22.87;18.50;;;;;;;6.59;56.45;100296.22;5092732;28;20057;-79
2023/01/08 09:12:09;;;;;;;22.60;15.75;;;;;;;5.89;56.53;100181.66;5092511;28;20048;-80
2023/01/08 09:14:35;;;;;;;16.33;13.43;;;;;;;6.07;57.03;100206.34;5091279;28;20544;-79
2023/01/08 09:17:00;;;;;;;16.30;13.38;;;;;;;6.57;56.73;100253.56;5092458;28;20115;-79
2023/01/08 09:19:25;;;;;;;15.90;11.43;;;;;;;6.00;56.78;100176.41;5092357;28;20033;-79
2023/01/08 09:21:51;;;;;;;18.85;13.50;;;;;;;6.46;57.01;100219.56;5091087;28;20051;-79
2023/01/08 09:24:16;;;;;;;19.00;12.82;;;;;;;6.83;56.56;100275.72;5092470;28;20062;-79
2023/01/08 09:26:42;;;;;;;16.63;13.48;;;;;;;6.33;56.70;100188.34;5091121;28;20417;-79
2023/01/08 09:29:07;;;;;;;13.73;11.43;;;;;;;6.43;56.80;100185.75;5092582;28;20032;-79
2023/01/08 09:31:33;;;;;;;16.83;14.15;;;;;;;5.73;56.70;100059.03;5092199;28;20107;-79
2023/01/08 09:33:58;;;;;;;20.40;14.77;;;;;;;6.03;56.95;100097.50;5092409;28;20031;-79
2023/01/08 09:36:24;;;;;;;17.55;12.93;;;;;;;6.46;56.99;100156.63;5092293;28;20027;-79
2023/01/08 09:38:49;;;;;;;19.80;13.85;;;;;;;6.55;56.98;100148.75;5092435;28;20055;-79
2023/01/08 09:41:28;;;;;;;16.55;12.68;;;;;;;6.78;56.41;100190.50;5092010;28;20107;-79
2023/01/08 09:43:57;;;;;;;18.73;14.02;;;;;;;7.05;56.29;100218.69;5090760;28;20031;-79
2023/01/08 09:46:26;;;;;;;16.63;13.50;;;;;;;7.47;56.47;100243.69;5091868;28;20089;-79
2023/01/08 09:48:54;;;;;;;19.15;14.77;;;;;;;6.63;55.84;100098.22;5091823;28;20038;-79
2023/01/08 09:51:19;;;;;;;17.90;14.52;;;;;;;7.60;56.14;100228.44;5090510;28;20024;-79
2023/01/08 09:53:49;;;;;;;20.10;14.82;;;;;;;5.82;56.26;99935.06;5090398;28;20043;-79
2023/01/08 09:56:17;;;;;;;19.88;15.48;;;;;;;7.10;56.22;100117.50;5092055;28;20051;-80
2023/01/08 09:58:49;;;;;;;17.20;15.15;;;;;;;7.71;56.00;100201.16;5090650;28;20042;-79
2023/01/08 10:01:18;;;;;;;21.17;15.52;;;;;;;7.96;55.37;100223.34;5091892;28;20508;-79
2023/01/08 10:03:48;;;;;;;20.63;15.77;;;;;;;7.53;55.34;100152.94;5091768;28;20037;-79
2023/01/08 10:06:15;;;;;;;19.67;15.90;;;;;;;8.04;55.01;100202.41;5091683;28;20063;-79
2023/01/08 10:08:41;;;;;;;20.70;15.48;;;;;;;7.86;54.89;100169.97;5091723;28;20028;-80
2023/01/08 10:11:07;;;;;;;21.08;16.55;;;;;;;8.32;55.11;100221.69;5091627;28;20028;-80
2023/01/08 10:13:36;;;;;;;26.77;19.58;;;;;;;7.63;54.93;100114.31;5091413;28;20048;-79
2023/01/08 10:16:05;;;;;;;28.50;22.75;;;;;;;7.67;54.63;100078.88;5091677;28;20081;-79
2023/01/08 10:18:32;;;;;;;36.28;26.60;;;;;;;8.55;54.71;100219.50;5091259;28;20028;-79
2023/01/08 10:20:57;;;;;;;32.35;24.38;;;;;;;8.48;54.50;100189.47;5090838;28;20408;-79
2023/01/08 10:23:23;;;;;;;33.90;29.38;;;;;;;8.10;54.50;100104.50;5091533;28;20031;-79
2023/01/08 10:25:56;;;;;;;40.00;30.98;;;;;;;8.24;54.69;100122.44;5090230;28;20027;-79
2023/01/08 10:28:39;;;;;;;32.25;24.50;;;;;;;8.36;54.89;100127.53;5091505;28;20032;-79
2023/01/08 10:31:09;;;;;;;27.98;23.48;;;;;;;8.56;54.32;100179.03;5091297;28;20028;-79
2023/01/08 10:33:42;;;;;;;29.15;23.85;;;;;;;8.48;54.48;100139.47;5091588;28;20111;-79
2023/01/08 10:36:12;;;;;;;29.30;21.80;;;;;;;8.47;54.24;100120.22;5091439;28;20028;-79
2023/01/08 10:38:52;;;;;;;25.52;20.63;;;;;;;8.43;54.34;100081.22;5091241;28;20082;-79
2023/01/08 10:41:18;;;;;;;28.02;21.73;;;;;;;8.53;54.43;100095.13;5091106;28;20111;-79
2023/01/08 10:43:58;;;;;;;21.98;16.30;;;;;;;9.08;54.23;100169.47;5091428;28;20420;-79
2023/01/08 10:46:29;;;;;;;21.50;17.10;;;;;;;9.08;54.38;100169.47;5091260;28;20415;-80
2023/01/08 10:48:57;;;;;;;18.88;15.05;;;;;;;8.61;53.79;100082.03;5091020;28;20032;-79
2023/01/08 10:51:26;;;;;;;23.10;16.92;;;;;;;9.12;54.14;100185.81;5091728;28;20035;-80
2023/01/08 10:53:53;;;;;;;20.05;14.88;;;;;;;8.98;54.20;100131.03;5092816;28;20043;-79
2023/01/08 10:56:20;;;;;;;20.85;13.63;;;;;;;9.13;54.01;100147.94;5090054;28;20028;-79
2023/01/08 10:58:46;;;;;;;20.63;15.68;;;;;;;9.11;53.99;100144.63;5091202;28;20082;-80
2023/01/08 11:01:31;;;;;;;16.48;13.68;;;;;;;9.15;53.91;100146.81;5089694;28;20520;-80
2023/01/08 11:04:02;;;;;;;14.48;12.48;;;;;;;8.84;54.10;100104.25;5090834;28;20091;-79
2023/01/08 11:06:35;;;;;;;18.23;14.07;;;;;;;9.02;54.05;100108.69;5091095;28;20116;-79
2023/01/08 11:09:24;;;;;;;18.48;14.57;;;;;;;9.01;53.74;100121.03;5089690;28;20020;-79
2023/01/08 11:11:50;;;;;;;20.70;16.15;;;;;;;9.19;54.40;100145.53;5090887;28;20070;-79
2023/01/08 11:14:25;;;;;;;17.08;13.70;;;;;;;9.19;53.92;100137.63;5091114;28;20115;-79
2023/01/08 11:16:51;;;;;;;17.10;14.10;;;;;;;8.89;53.85;100085.34;5090898;28;20485;-79
2023/01/08 11:19:29;;;;;;;20.92;14.80;;;;;;;9.16;54.04;100130.03;5090854;28;20070;-79